Terminal Aerodrome Forecast
Issued by NWS

Home | Current Version | Previous Version | Graphics & Text | Print | Product List | Glossary On
Versions: 1 2 3 4 5 6 7 8 9 10 11 12 13 14 15 16 17 18 19 20 21 22 23 24 25 26 27 28 29 30
000
FTUS43 KBIS 260108 AAB
TAFMOT
TAF AMD
KMOT 260108Z 2601/2624 15006KT P6SM -RA BKN015 OVC100
     FM260200 36008KT P6SM VCTS BKN035CB OVC100
     FM260500 34006KT P6SM VCTS OVC025CB
     FM260700 33007KT P6SM VCTS OVC010CB
     FM260900 32006KT P6SM OVC015
     FM261500 29010KT P6SM BKN050=

USA.gov is the U.S. government's official web portal to all federal, state and local government web resources and services.